createdAt,value
2018-09-22T00:00:05.550Z,64.09
2018-09-22T00:01:05.498Z,64.22
2018-09-22T00:02:05.524Z,64.63
2018-09-22T00:03:05.467Z,64.73
2018-09-22T00:04:05.459Z,64.43
2018-09-22T00:05:05.461Z,64.63
2018-09-22T00:06:05.488Z,64.94
2018-09-22T00:07:05.421Z,64.63
2018-09-22T00:08:05.435Z,64.43
2018-09-22T00:09:05.399Z,64.73
2018-09-22T00:10:05.392Z,64.43
2018-09-22T00:11:05.378Z,64.63
2018-09-22T00:12:05.429Z,64.84
2018-09-22T00:13:05.404Z,64.84
2018-09-22T00:14:05.344Z,64.97
2018-09-22T00:15:05.336Z,64.97
2018-09-22T00:16:05.320Z,65.07
2018-09-22T00:17:05.312Z,65.28
2018-09-22T00:18:05.335Z,65.48
2018-09-22T00:19:05.311Z,65.07
2018-09-22T00:20:05.283Z,64.53
2018-09-22T00:21:05.270Z,64.63
2018-09-22T00:22:05.269Z,64.32
2018-09-22T00:23:05.255Z,64.29
2018-09-22T00:24:05.283Z,63.89
2018-09-22T00:25:05.227Z,63.68
2018-09-22T00:26:05.225Z,64.12
2018-09-22T00:27:05.210Z,64.22
2018-09-22T00:28:05.200Z,64.56
2018-09-22T00:29:05.196Z,64.53
2018-09-22T00:30:05.209Z,64.66
2018-09-22T00:31:05.196Z,64.87
2018-09-22T00:32:05.160Z,65.14
2018-09-22T00:33:05.147Z,64.84
2018-09-22T00:34:05.141Z,64.76
2018-09-22T00:35:05.125Z,65.07
2018-09-22T00:36:05.143Z,65.17
2018-09-22T00:37:05.100Z,65.07
2018-09-22T00:38:05.087Z,64.97
2018-09-22T00:39:05.176Z,65.07
2018-09-22T00:40:05.065Z,64.97
2018-09-22T00:41:05.068Z,64.87
2018-09-22T00:42:05.100Z,65.07
2018-09-22T00:43:05.034Z,64.97
2018-09-22T00:44:05.029Z,64.87
2018-09-22T00:45:05.015Z,64.76
2018-09-22T00:46:05.009Z,64.94
2018-09-22T00:47:05.004Z,65.37
2018-09-22T00:48:05.017Z,65.07
2018-09-22T00:49:05.009Z,65.37
2018-09-22T00:50:04.981Z,65.58
2018-09-22T00:51:04.958Z,65.58
2018-09-22T00:52:04.944Z,66.33
2018-09-22T00:53:04.936Z,65.78
2018-09-22T00:54:04.944Z,65.61
2018-09-22T00:55:04.902Z,65.51
2018-09-22T00:56:04.889Z,66.42
2018-09-22T00:57:04.882Z,66.22
2018-09-22T00:58:04.883Z,66.12
2018-09-22T00:59:04.862Z,66.94
2018-09-22T01:00:04.898Z,67.04
2018-09-22T01:01:04.841Z,66.94
2018-09-22T01:02:04.823Z,67.04
2018-09-22T01:03:04.820Z,67.27
2018-09-22T01:04:04.809Z,67.24
2018-09-22T01:05:04.796Z,67.24
2018-09-22T01:06:04.859Z,67.24
2018-09-22T01:07:04.774Z,67.35
2018-09-22T01:08:04.762Z,67.79
2018-09-22T01:09:04.753Z,67.07
2018-09-22T01:10:04.740Z,67.89
2018-09-22T01:11:04.731Z,67.38
2018-09-22T01:12:04.783Z,67.58
2018-09-22T01:13:04.712Z,68.06
2018-09-22T01:14:04.698Z,67.99
2018-09-22T01:15:04.696Z,68.09
2018-09-22T01:16:04.678Z,67.99
2018-09-22T01:17:04.666Z,68.09
2018-09-22T01:18:04.722Z,68.02
2018-09-22T01:19:04.656Z,68.74
2018-09-22T01:20:04.640Z,68.74
2018-09-22T01:21:04.631Z,68.53
2018-09-22T01:22:04.614Z,68.84
2018-09-22T01:23:04.602Z,69.15
2018-09-22T01:24:04.618Z,68.94
2018-09-22T01:25:04.578Z,68.94
2018-09-22T01:26:04.583Z,69.04
2018-09-22T01:27:04.571Z,68.84
2018-09-22T01:28:04.544Z,69.15
2018-09-22T01:29:04.531Z,68.84
2018-09-22T01:30:04.568Z,68.74
2018-09-22T01:31:04.519Z,68.74
2018-09-22T01:32:04.499Z,69.45
2018-09-22T01:33:04.486Z,68.94
2018-09-22T01:34:04.517Z,69.35
2018-09-22T01:35:04.470Z,69.35
2018-09-22T01:36:04.496Z,69.45
2018-09-22T01:37:04.447Z,69.35
2018-09-22T01:38:04.454Z,69.86
2018-09-22T01:39:04.423Z,69.28
2018-09-22T01:40:04.419Z,69.07
2018-09-22T01:41:04.419Z,69.07
2018-09-22T01:42:04.427Z,70.00
2018-09-22T01:43:04.387Z,70.00
2018-09-22T01:44:04.368Z,70.00
2018-09-22T01:45:04.358Z,70.30
2018-09-22T01:46:04.353Z,70.30
2018-09-22T01:47:04.335Z,70.30
2018-09-22T01:48:04.358Z,70.84
2018-09-22T01:49:04.323Z,70.64
2018-09-22T01:50:04.305Z,70.95
2018-09-22T01:51:04.312Z,70.84
2018-09-22T01:52:04.282Z,70.78
2018-09-22T01:53:04.276Z,71.49
2018-09-22T01:54:04.294Z,70.64
2018-09-22T01:55:04.262Z,70.57
2018-09-22T01:56:04.259Z,71.25
2018-09-22T01:57:04.231Z,71.46
2018-09-22T01:58:04.211Z,71.56
2018-09-22T01:59:04.232Z,71.49
2018-09-22T02:00:04.224Z,71.49
2018-09-22T02:01:04.191Z,71.36
2018-09-22T02:02:04.171Z,71.29
2018-09-22T02:03:04.170Z,71.36
2018-09-22T02:04:04.160Z,71.08
2018-09-22T02:05:04.153Z,71.39
2018-09-22T02:06:04.181Z,71.49
2018-09-22T02:07:04.134Z,71.19
2018-09-22T02:08:04.110Z,71.25
2018-09-22T02:09:04.099Z,71.59
2018-09-22T02:10:04.085Z,71.49
2018-09-22T02:11:04.086Z,72.07
2018-09-22T02:12:04.109Z,71.87
2018-09-22T02:13:04.051Z,71.97
2018-09-22T02:14:04.049Z,71.39
2018-09-22T02:15:04.048Z,72.11
2018-09-22T02:16:04.022Z,72.11
2018-09-22T02:17:04.008Z,72.00
2018-09-22T02:18:04.034Z,72.82
2018-09-22T02:19:03.993Z,72.21
2018-09-22T02:20:03.980Z,72.28
2018-09-22T02:21:03.973Z,72.11
2018-09-22T02:22:03.977Z,72.00
2018-09-22T02:23:03.946Z,71.49
2018-09-22T02:24:03.961Z,72.62
2018-09-22T02:25:03.924Z,72.28
2018-09-22T02:26:03.917Z,72.79
2018-09-22T02:27:03.909Z,72.48
2018-09-22T02:28:03.889Z,72.48
2018-09-22T02:29:03.886Z,72.21
2018-09-22T02:30:03.913Z,72.28
2018-09-22T02:31:03.865Z,72.62
2018-09-22T02:32:03.843Z,72.82
2018-09-22T02:33:03.840Z,72.38
2018-09-22T02:34:03.830Z,72.82
2018-09-22T02:35:03.820Z,72.41
2018-09-22T02:36:03.829Z,72.41
2018-09-22T02:37:03.791Z,72.69
2018-09-22T02:38:03.783Z,72.48
2018-09-22T02:39:03.778Z,72.21
2018-09-22T02:40:03.759Z,72.52
2018-09-22T02:41:03.752Z,72.28
2018-09-22T02:42:03.771Z,72.38
2018-09-22T02:43:03.723Z,72.00
2018-09-22T02:44:03.730Z,72.31
2018-09-22T02:45:03.710Z,72.31
2018-09-22T02:46:03.691Z,72.41
2018-09-22T02:47:03.691Z,72.28
2018-09-22T02:48:03.713Z,71.87
2018-09-22T02:49:03.661Z,72.79
2018-09-22T02:50:03.652Z,72.58
2018-09-22T02:51:03.653Z,72.17
2018-09-22T02:52:03.629Z,72.28
2018-09-22T02:53:03.636Z,72.11
2018-09-22T02:54:03.642Z,72.07
2018-09-22T02:55:03.594Z,72.07
2018-09-22T02:56:03.590Z,71.97
2018-09-22T02:57:03.574Z,71.97
2018-09-22T02:58:03.565Z,72.38
2018-09-22T02:59:03.574Z,72.17
2018-09-22T03:00:03.578Z,72.58
2018-09-22T03:01:03.530Z,72.48
2018-09-22T03:02:03.520Z,72.38
2018-09-22T03:03:03.526Z,72.79
2018-09-22T03:04:03.496Z,72.79
2018-09-22T03:05:03.484Z,72.38
2018-09-22T03:06:03.564Z,71.87
2018-09-22T03:07:03.470Z,71.87
2018-09-22T03:08:03.455Z,72.28
2018-09-22T03:09:03.444Z,71.97
2018-09-22T03:10:03.476Z,72.52
2018-09-22T03:11:03.422Z,72.79
2018-09-22T03:12:03.444Z,72.48
2018-09-22T03:13:03.416Z,72.07
2018-09-22T03:14:03.396Z,71.87
2018-09-22T03:15:03.378Z,71.97
2018-09-22T03:16:03.364Z,72.48
2018-09-22T03:17:03.350Z,71.87
2018-09-22T03:18:03.388Z,72.41
2018-09-22T03:19:03.336Z,71.97
2018-09-22T03:20:03.320Z,72.48
2018-09-22T03:21:03.314Z,71.97
2018-09-22T03:22:03.296Z,72.52
2018-09-22T03:23:03.284Z,72.17
2018-09-22T03:24:03.320Z,72.31
2018-09-22T03:25:03.270Z,72.31
2018-09-22T03:26:03.262Z,72.31
2018-09-22T03:27:03.255Z,72.41
2018-09-22T03:28:03.235Z,72.31
2018-09-22T03:29:03.234Z,72.72
2018-09-22T03:30:03.246Z,72.72
2018-09-22T03:31:03.203Z,72.92
2018-09-22T03:32:03.212Z,72.72
2018-09-22T03:33:03.213Z,73.23
2018-09-22T03:34:03.181Z,73.13
2018-09-22T03:35:03.156Z,73.44
2018-09-22T03:36:03.184Z,73.03
2018-09-22T03:37:03.146Z,73.64
2018-09-22T03:38:03.151Z,73.74
2018-09-22T03:39:03.110Z,73.54
2018-09-22T03:40:03.105Z,73.64
2018-09-22T03:41:03.110Z,73.54
2018-09-22T03:42:03.127Z,73.54
2018-09-22T03:43:03.079Z,73.54
2018-09-22T03:44:03.069Z,73.74
2018-09-22T03:45:03.049Z,73.78
2018-09-22T03:46:03.051Z,73.64
2018-09-22T03:47:03.026Z,73.64
2018-09-22T03:48:03.072Z,73.54
2018-09-22T03:49:03.014Z,73.85
2018-09-22T03:50:02.993Z,73.94
2018-09-22T03:51:03.000Z,73.74
2018-09-22T03:52:02.974Z,73.54
2018-09-22T03:53:02.958Z,73.44
2018-09-22T03:54:03.004Z,73.44
2018-09-22T03:55:02.937Z,73.64
2018-09-22T03:56:02.926Z,73.23
2018-09-22T03:57:02.924Z,73.85
2018-09-22T03:58:02.913Z,73.64
2018-09-22T03:59:02.913Z,73.44
2018-09-22T04:00:02.942Z,73.54
2018-09-22T04:01:02.883Z,72.72
2018-09-22T04:02:02.859Z,73.23
2018-09-22T04:03:02.847Z,73.54
2018-09-22T04:04:02.838Z,73.44
2018-09-22T04:05:02.828Z,73.13
2018-09-22T04:06:02.846Z,73.64
2018-09-22T04:07:02.812Z,73.33
2018-09-22T04:08:02.800Z,73.64
2018-09-22T04:09:02.787Z,73.44
2018-09-22T04:10:02.787Z,73.47
2018-09-22T04:11:02.776Z,73.27
2018-09-22T04:12:02.792Z,73.13
2018-09-22T04:13:02.745Z,73.54
2018-09-22T04:14:02.748Z,73.74
2018-09-22T04:15:02.723Z,73.54
2018-09-22T04:16:02.718Z,73.36
2018-09-22T04:17:02.699Z,73.85
2018-09-22T04:18:02.729Z,73.74
2018-09-22T04:19:02.675Z,73.85
2018-09-22T04:20:02.688Z,73.44
2018-09-22T04:21:02.652Z,73.64
2018-09-22T04:22:02.643Z,73.33
2018-09-22T04:23:02.638Z,73.03
2018-09-22T04:24:02.668Z,73.54
2018-09-22T04:25:02.608Z,72.82
2018-09-22T04:26:02.605Z,73.54
2018-09-22T04:27:02.601Z,73.23
2018-09-22T04:28:02.585Z,73.23
2018-09-22T04:29:02.584Z,73.33
2018-09-22T04:30:02.599Z,72.72
2018-09-22T04:31:10.087Z,73.33
2018-09-22T04:32:10.076Z,72.92
2018-09-22T04:33:10.098Z,73.44
2018-09-22T04:34:10.068Z,73.13
2018-09-22T04:35:11.881Z,73.13
2018-09-22T04:36:10.035Z,72.82
2018-09-22T04:37:10.020Z,72.82
2018-09-22T04:38:10.025Z,73.44
2018-09-22T04:39:10.000Z,73.33
2018-09-22T04:40:10.995Z,73.33
2018-09-22T04:41:11.114Z,73.33
2018-09-22T04:42:09.970Z,73.23
2018-09-22T04:43:02.409Z,73.23
2018-09-22T04:44:02.395Z,73.03
2018-09-22T04:45:02.396Z,73.20
2018-09-22T04:46:02.381Z,73.50
2018-09-22T04:47:02.392Z,73.13
2018-09-22T04:48:02.365Z,73.74
2018-09-22T04:49:02.361Z,73.44
2018-09-22T04:50:02.339Z,73.64
2018-09-22T04:51:02.322Z,73.23
2018-09-22T04:52:02.366Z,72.89
2018-09-22T04:53:02.357Z,73.23
2018-09-22T04:54:02.292Z,73.44
2018-09-22T04:55:02.293Z,73.64
2018-09-22T04:56:02.276Z,73.61
2018-09-22T04:57:02.267Z,73.61
2018-09-22T04:58:02.256Z,73.50
2018-09-22T04:59:02.300Z,73.54
2018-09-22T05:00:02.231Z,73.74
2018-09-22T05:01:02.237Z,73.30
2018-09-22T05:02:02.212Z,73.40
2018-09-22T05:03:02.193Z,74.02
2018-09-22T05:04:02.209Z,73.50
2018-09-22T05:05:02.212Z,73.91
2018-09-22T05:06:02.169Z,73.81
2018-09-22T05:07:02.171Z,73.94
2018-09-22T05:08:02.141Z,73.40
2018-09-22T05:09:02.133Z,73.81
2018-09-22T05:10:02.132Z,73.71
2018-09-22T05:11:02.152Z,73.91
2018-09-22T05:12:02.100Z,73.50
2018-09-22T05:13:02.085Z,73.61
2018-09-22T05:14:02.083Z,73.40
2018-09-22T05:15:02.075Z,73.71
2018-09-22T05:16:02.060Z,73.91
2018-09-22T05:17:02.121Z,73.91
2018-09-22T05:18:02.029Z,74.02
2018-09-22T05:19:02.042Z,73.91
2018-09-22T05:20:02.014Z,73.91
2018-09-22T05:21:02.048Z,74.22
2018-09-22T05:22:02.007Z,73.91
2018-09-22T05:23:02.018Z,74.11
2018-09-22T05:24:01.972Z,74.26
2018-09-22T05:25:01.959Z,74.35
2018-09-22T05:26:01.945Z,74.26
2018-09-22T05:27:01.957Z,74.15
2018-09-22T05:28:01.931Z,74.46
2018-09-22T05:29:01.949Z,74.26
2018-09-22T05:30:01.905Z,74.56
2018-09-22T05:31:01.892Z,74.26
2018-09-22T05:32:01.885Z,74.66
2018-09-22T05:33:01.885Z,74.46
2018-09-22T05:34:01.923Z,74.76
2018-09-22T05:35:01.873Z,74.87
2018-09-22T05:36:01.835Z,74.46
2018-09-22T05:37:01.818Z,74.76
2018-09-22T05:38:01.809Z,74.76
2018-09-22T05:39:01.792Z,74.87
2018-09-22T05:40:01.783Z,74.66
2018-09-22T05:41:01.803Z,74.76
2018-09-22T05:42:01.761Z,74.66
2018-09-22T05:43:01.772Z,74.56
2018-09-22T05:44:01.750Z,74.66
2018-09-22T05:45:01.744Z,75.17
2018-09-22T05:46:01.798Z,74.76
2018-09-22T05:47:01.753Z,74.66
2018-09-22T05:48:01.704Z,74.66
2018-09-22T05:49:01.690Z,74.66
2018-09-22T05:50:01.744Z,74.76
2018-09-22T05:51:01.672Z,74.46
2018-09-22T05:52:01.650Z,74.76
2018-09-22T05:53:01.688Z,74.76
2018-09-22T05:54:01.651Z,74.66
2018-09-22T05:55:01.635Z,74.66
2018-09-22T05:56:01.609Z,74.66
2018-09-22T05:57:01.605Z,74.66
2018-09-22T05:58:01.649Z,74.87
2018-09-22T05:59:01.625Z,74.84
2018-09-22T06:00:01.568Z,74.66
2018-09-22T06:01:01.570Z,74.63
2018-09-22T06:02:01.548Z,74.46
2018-09-22T06:03:01.604Z,74.52
2018-09-22T06:04:01.550Z,74.43
2018-09-22T06:05:01.558Z,74.11
2018-09-22T06:06:01.499Z,74.02
2018-09-22T06:07:01.490Z,74.02
2018-09-22T06:08:01.480Z,73.91
2018-09-22T06:09:01.488Z,73.88
2018-09-22T06:10:01.481Z,74.08
2018-09-22T06:11:01.476Z,74.11
2018-09-22T06:12:01.433Z,73.77
2018-09-22T06:13:01.434Z,73.88
2018-09-22T06:14:01.410Z,73.88
2018-09-22T06:15:01.404Z,73.88
2018-09-22T06:16:01.450Z,73.47
2018-09-22T06:17:01.423Z,73.57
2018-09-22T06:18:01.378Z,73.57
2018-09-22T06:19:01.380Z,73.36
2018-09-22T06:20:01.368Z,73.68
2018-09-22T06:21:01.335Z,73.57
2018-09-22T06:22:01.322Z,73.27
2018-09-22T06:23:01.482Z,72.82
2018-09-22T06:24:01.313Z,72.92
2018-09-22T06:25:01.290Z,72.82
2018-09-22T06:26:01.287Z,72.62
2018-09-22T06:27:01.270Z,72.92
2018-09-22T06:28:01.329Z,72.41
2018-09-22T06:29:01.286Z,72.11
2018-09-22T06:30:01.251Z,72.00
2018-09-22T06:31:01.230Z,72.62
2018-09-22T06:32:01.317Z,72.38
2018-09-22T06:33:01.222Z,72.92
2018-09-22T06:34:01.198Z,72.28
2018-09-22T06:35:01.226Z,72.07
2018-09-22T06:36:01.171Z,71.97
2018-09-22T06:37:01.193Z,71.36
2018-09-22T06:38:01.158Z,71.97
2018-09-22T06:39:01.146Z,71.67
2018-09-22T06:40:01.186Z,71.05
2018-09-22T06:41:01.215Z,71.22
2018-09-22T06:42:01.115Z,71.15
2018-09-22T06:43:01.104Z,71.22
2018-09-22T06:44:01.088Z,71.43
2018-09-22T06:45:01.283Z,70.51
2018-09-22T06:46:01.265Z,70.72
2018-09-22T06:47:01.203Z,70.61
2018-09-22T06:48:01.066Z,70.95
2018-09-22T06:49:01.050Z,70.81
2018-09-22T06:50:01.055Z,70.61
2018-09-22T06:51:01.016Z,70.81
2018-09-22T06:52:01.004Z,70.61
2018-09-22T06:53:01.036Z,70.68
2018-09-22T06:54:00.979Z,70.68
2018-09-22T06:55:01.072Z,70.37
2018-09-22T06:56:00.954Z,70.27
2018-09-22T06:57:00.944Z,70.27
2018-09-22T06:58:00.943Z,70.07
2018-09-22T06:59:00.960Z,70.48
2018-09-22T07:00:00.915Z,69.86
2018-09-22T07:01:00.899Z,69.46
2018-09-22T07:02:00.888Z,69.53
2018-09-22T07:03:00.886Z,69.12
2018-09-22T07:04:00.920Z,69.66
2018-09-22T07:05:00.887Z,68.81
2018-09-22T07:06:00.847Z,68.81
2018-09-22T07:07:00.834Z,69.02
2018-09-22T07:08:00.829Z,69.32
2018-09-22T07:09:00.837Z,69.02
2018-09-22T07:10:00.806Z,68.81
2018-09-22T07:11:00.849Z,68.71
2018-09-22T07:12:00.785Z,68.81
2018-09-22T07:13:00.769Z,68.78
2018-09-22T07:14:00.758Z,68.27
2018-09-22T07:15:00.767Z,68.48
2018-09-22T07:16:00.736Z,68.61
2018-09-22T07:17:00.773Z,68.61
2018-09-22T07:18:00.736Z,67.86
2018-09-22T07:19:00.714Z,67.66
2018-09-22T07:20:00.695Z,68.17
2018-09-22T07:21:00.706Z,67.46
2018-09-22T07:22:00.704Z,67.25
2018-09-22T07:23:00.698Z,67.63
2018-09-22T07:24:00.648Z,67.22
2018-09-22T07:25:00.635Z,66.82
2018-09-22T07:26:00.631Z,67.22
2018-09-22T07:27:00.615Z,67.12
2018-09-22T07:28:00.603Z,67.32
2018-09-22T07:29:00.630Z,66.61
2018-09-22T07:30:00.581Z,66.00
2018-09-22T07:31:00.621Z,66.00
2018-09-22T07:32:00.593Z,66.61
2018-09-22T07:33:00.772Z,66.00
2018-09-22T07:34:00.863Z,66.61
2018-09-22T07:35:00.584Z,66.20
2018-09-22T07:36:00.531Z,66.20
2018-09-22T07:37:00.523Z,65.56
2018-09-22T07:38:00.514Z,65.97
2018-09-22T07:39:00.488Z,65.56
2018-09-22T07:40:00.524Z,65.53
2018-09-22T07:41:00.523Z,65.33
2018-09-22T07:42:00.630Z,64.81
2018-09-22T07:43:00.444Z,64.31
2018-09-22T07:44:00.446Z,64.11
2018-09-22T07:45:00.423Z,63.67
2018-09-22T07:46:00.404Z,63.87
2018-09-22T07:47:00.496Z,63.77
2018-09-22T07:48:00.576Z,63.67
2018-09-22T07:49:00.376Z,63.33
2018-09-22T07:50:00.375Z,62.62
2018-09-22T07:51:00.407Z,62.62
2018-09-22T07:52:00.344Z,63.33
2018-09-22T07:53:00.396Z,62.72
2018-09-22T07:54:00.325Z,62.93
2018-09-22T07:55:00.303Z,63.54
2018-09-22T07:56:00.300Z,62.82
2018-09-22T07:57:00.315Z,62.52
2018-09-22T07:58:00.291Z,63.33
2018-09-22T07:59:00.291Z,62.08
2018-09-22T08:00:00.256Z,62.49
2018-09-22T08:01:00.295Z,62.39
2018-09-22T08:02:00.237Z,62.79
2018-09-22T08:03:00.216Z,61.88
2018-09-22T08:04:00.234Z,61.47
2018-09-22T08:05:00.243Z,61.47
2018-09-22T08:06:00.186Z,62.29
2018-09-22T08:07:00.179Z,61.88
2018-09-22T08:08:00.168Z,62.39
2018-09-22T08:09:00.163Z,62.56
2018-09-22T08:10:00.246Z,61.95
2018-09-22T08:11:00.213Z,61.14
2018-09-22T08:12:00.140Z,61.01
2018-09-22T08:13:00.143Z,61.41
2018-09-22T08:14:00.113Z,61.01
2018-09-22T08:15:00.097Z,60.78
2018-09-22T08:16:00.096Z,60.17
2018-09-22T08:17:00.094Z,60.78
2018-09-22T08:18:00.057Z,60.14
2018-09-22T08:19:00.050Z,60.35
2018-09-22T08:20:00.038Z,59.41
2018-09-22T08:21:00.081Z,59.41
2018-09-22T08:22:00.034Z,59.23
2018-09-22T08:23:00.044Z,59.23
2018-09-22T08:23:59.994Z,59.53
2018-09-22T08:24:59.971Z,59.00
2018-09-22T08:25:59.962Z,59.20
2018-09-22T08:26:59.973Z,59.41
2018-09-22T08:27:59.945Z,59.00
2018-09-22T08:28:59.967Z,59.07
2018-09-22T08:29:59.923Z,59.48
2018-09-22T08:30:59.946Z,58.47
2018-09-22T08:31:59.976Z,58.26
2018-09-22T08:32:59.936Z,57.65
2018-09-22T08:33:59.878Z,58.26
2018-09-22T08:34:59.927Z,57.22
2018-09-22T08:35:59.936Z,58.23
2018-09-22T08:37:00.015Z,57.73
2018-09-22T08:37:59.882Z,57.22
2018-09-22T08:38:59.827Z,58.03
2018-09-22T08:39:59.811Z,57.24
2018-09-22T08:40:59.847Z,57.86
2018-09-22T08:41:59.813Z,57.22
2018-09-22T08:42:59.820Z,57.12
2018-09-22T08:43:59.780Z,57.53
2018-09-22T08:45:00.021Z,57.45
2018-09-22T08:45:59.753Z,58.03
2018-09-22T08:46:59.797Z,58.13
2018-09-22T08:47:59.750Z,57.42
2018-09-22T08:48:59.715Z,57.53
2018-09-22T08:49:59.714Z,57.53
2018-09-22T08:50:59.729Z,57.73
2018-09-22T08:51:59.676Z,56.61
2018-09-22T08:52:59.701Z,57.93
2018-09-22T08:53:59.658Z,57.12
2018-09-22T08:54:59.646Z,57.32
2018-09-22T08:55:59.645Z,56.82
2018-09-22T08:56:59.656Z,57.32
2018-09-22T08:57:59.670Z,57.50
2018-09-22T08:58:59.648Z,57.20
2018-09-22T08:59:59.626Z,56.48
2018-09-22T09:00:59.668Z,57.50
2018-09-22T09:01:59.569Z,57.09
2018-09-22T09:02:59.558Z,57.09
2018-09-22T09:03:59.589Z,58.00
2018-09-22T09:04:59.619Z,57.27
2018-09-22T09:05:59.577Z,56.66
2018-09-22T09:06:59.513Z,56.38
2018-09-22T09:07:59.504Z,56.56
2018-09-22T09:08:59.496Z,56.46
2018-09-22T09:09:59.484Z,55.93
2018-09-22T09:10:59.504Z,55.65
2018-09-22T09:11:59.489Z,56.43
2018-09-22T09:12:59.452Z,55.22
2018-09-22T09:13:59.492Z,55.55
2018-09-22T09:14:59.451Z,55.93
2018-09-22T09:15:59.427Z,55.24
2018-09-22T09:16:59.471Z,55.62
2018-09-22T09:17:59.398Z,55.73
2018-09-22T09:18:59.387Z,54.71
2018-09-22T09:19:59.384Z,54.49
2018-09-22T09:20:59.358Z,54.79
2018-09-22T09:21:59.351Z,54.28
2018-09-22T09:22:59.381Z,53.88
2018-09-22T09:23:59.348Z,54.69
2018-09-22T09:24:59.331Z,54.08
2018-09-22T09:25:59.300Z,54.28
2018-09-22T09:26:59.291Z,53.47
2018-09-22T09:27:59.292Z,54.38
2018-09-22T09:28:59.340Z,54.28
2018-09-22T09:29:59.301Z,53.58
2018-09-22T09:30:59.251Z,54.36
2018-09-22T09:31:59.260Z,53.65
2018-09-22T09:32:59.235Z,52.84
2018-09-22T09:33:59.238Z,53.96
2018-09-22T09:34:59.252Z,52.56
2018-09-22T09:35:59.193Z,53.58
2018-09-22T09:36:59.189Z,54.49
2018-09-22T09:37:59.211Z,53.05
2018-09-22T09:38:59.163Z,53.14
2018-09-22T09:39:59.149Z,52.82
2018-09-22T09:40:59.175Z,52.34
2018-09-22T09:41:59.162Z,52.72
2018-09-22T09:42:59.121Z,52.61
2018-09-22T09:43:59.112Z,52.72
2018-09-22T09:44:59.119Z,52.11
2018-09-22T09:45:59.091Z,52.01
2018-09-22T09:46:59.109Z,52.82
2018-09-22T09:47:59.083Z,52.41
2018-09-22T09:48:59.050Z,51.20
2018-09-22T09:49:59.036Z,51.10
2018-09-22T09:50:59.039Z,50.90
2018-09-22T09:51:59.029Z,51.40
2018-09-22T09:52:59.049Z,50.90
2018-09-22T09:53:58.998Z,50.87
2018-09-22T09:54:59.074Z,49.36
2018-09-22T09:55:58.974Z,50.47
2018-09-22T09:56:58.959Z,50.67
2018-09-22T09:57:58.952Z,50.15
2018-09-22T09:58:58.973Z,50.04
2018-09-22T09:59:58.936Z,49.74
2018-09-22T10:00:58.921Z,49.87
2018-09-22T10:01:58.910Z,49.96
2018-09-22T10:02:58.901Z,50.27
2018-09-22T10:03:58.894Z,50.67
2018-09-22T10:04:58.915Z,50.19
2018-09-22T10:05:58.896Z,51.58
2018-09-22T10:06:58.853Z,51.18
2018-09-22T10:07:58.842Z,51.05
2018-09-22T10:08:58.836Z,51.15
2018-09-22T10:09:58.820Z,50.85
2018-09-22T10:10:58.861Z,50.95
2018-09-22T10:11:58.824Z,50.42
2018-09-22T10:12:58.825Z,51.05
2018-09-22T10:13:58.791Z,50.73
2018-09-22T10:14:58.807Z,50.75
2018-09-22T10:15:58.782Z,50.55
2018-09-22T10:16:58.777Z,50.95
2018-09-22T10:17:58.785Z,51.15
2018-09-22T10:18:58.729Z,50.75
2018-09-22T10:19:58.722Z,50.02
2018-09-22T10:20:58.728Z,50.93
2018-09-22T10:21:58.703Z,51.13
2018-09-22T10:22:58.748Z,50.85
2018-09-22T10:23:58.673Z,51.05
2018-09-22T10:24:58.662Z,50.12
2018-09-22T10:25:58.655Z,50.32
2018-09-22T10:26:58.674Z,50.22
2018-09-22T10:27:58.695Z,49.92
2018-09-22T10:28:58.683Z,50.32
2018-09-22T10:29:58.606Z,50.12
2018-09-22T10:30:58.602Z,49.99
2018-09-22T10:31:58.585Z,50.22
2018-09-22T10:32:58.574Z,50.20
2018-09-22T10:33:58.570Z,50.20
2018-09-22T10:34:58.601Z,49.79
2018-09-22T10:35:58.546Z,50.17
2018-09-22T10:36:58.534Z,49.87
2018-09-22T10:37:58.531Z,48.26
2018-09-22T10:38:58.516Z,48.96
2018-09-22T10:39:58.526Z,49.55
2018-09-22T10:40:58.532Z,48.94
2018-09-22T10:41:58.480Z,48.82
2018-09-22T10:42:58.495Z,48.29
2018-09-22T10:43:58.492Z,48.39
2018-09-22T10:44:59.157Z,47.89
2018-09-22T10:45:58.450Z,47.08
2018-09-22T10:46:58.470Z,47.39
2018-09-22T10:47:58.417Z,47.89
2018-09-22T10:48:58.403Z,47.69
2018-09-22T10:49:58.396Z,46.93
2018-09-22T10:50:58.395Z,47.75
2018-09-22T10:51:58.387Z,48.24
2018-09-22T10:52:58.449Z,48.14
2018-09-22T10:53:58.358Z,47.11
2018-09-22T10:54:58.339Z,46.70
2018-09-22T10:55:58.332Z,47.51
2018-09-22T10:56:58.322Z,46.60
2018-09-22T10:57:58.309Z,47.41
2018-09-22T10:58:58.347Z,46.60
2018-09-22T10:59:58.280Z,46.48
2018-09-22T11:00:58.276Z,46.60
2018-09-22T11:01:58.258Z,46.53
2018-09-22T11:02:58.254Z,46.45
2018-09-22T11:03:58.234Z,46.83
2018-09-22T11:04:58.276Z,46.93
2018-09-22T11:05:58.216Z,47.53
2018-09-22T11:06:58.241Z,47.31
2018-09-22T11:07:58.205Z,46.73
2018-09-22T11:08:58.189Z,47.23
2018-09-22T11:09:58.230Z,47.43
2018-09-22T11:10:58.199Z,46.10
2018-09-22T11:11:58.156Z,45.19
2018-09-22T11:12:58.137Z,45.19
2018-09-22T11:13:58.125Z,44.69
2018-09-22T11:14:58.111Z,45.09
2018-09-22T11:15:58.100Z,45.09
2018-09-22T11:16:58.122Z,44.37
2018-09-22T11:17:58.098Z,45.07
2018-09-22T11:18:58.067Z,43.68
2018-09-22T11:19:58.061Z,44.49
2018-09-22T11:20:58.045Z,44.49
2018-09-22T11:21:58.093Z,45.09
2018-09-22T11:22:58.107Z,44.21
2018-09-22T11:23:58.022Z,44.79
2018-09-22T11:24:58.002Z,45.62
2018-09-22T11:25:57.993Z,44.81
2018-09-22T11:26:58.075Z,43.60
2018-09-22T11:27:57.971Z,44.71
2018-09-22T11:28:57.993Z,44.41
2018-09-22T11:29:58.032Z,44.01
2018-09-22T11:30:57.939Z,43.80
2018-09-22T11:31:57.928Z,44.61
2018-09-22T11:32:57.927Z,43.80
2018-09-22T11:33:57.910Z,45.42
2018-09-22T11:34:57.944Z,45.19
2018-09-22T11:35:57.883Z,44.49
2018-09-22T11:36:57.883Z,44.79
2018-09-22T11:37:57.894Z,44.09
2018-09-22T11:38:57.865Z,45.00
2018-09-22T11:39:57.842Z,45.00
2018-09-22T11:40:57.895Z,44.57
2018-09-22T11:41:57.820Z,44.17
2018-09-22T11:42:57.807Z,42.98
2018-09-22T11:43:57.798Z,44.19
2018-09-22T11:44:57.881Z,45.19
2018-09-22T11:45:57.783Z,44.41
2018-09-22T11:46:57.799Z,44.13
2018-09-22T11:47:57.773Z,44.63
2018-09-22T11:48:57.747Z,44.23
2018-09-22T11:49:57.731Z,44.63
2018-09-22T11:50:57.720Z,45.34
2018-09-22T11:51:57.740Z,44.43
2018-09-22T11:52:57.749Z,44.93
2018-09-22T11:53:57.690Z,45.14
2018-09-22T11:54:57.725Z,45.01
2018-09-22T11:55:57.668Z,45.12
2018-09-22T11:56:57.660Z,44.92
2018-09-22T11:57:57.687Z,45.32
2018-09-22T11:58:57.674Z,44.51
2018-09-22T11:59:57.624Z,44.81
2018-09-22T12:00:57.620Z,45.19
2018-09-22T12:01:57.666Z,43.88
2018-09-22T12:02:57.595Z,42.88
2018-09-22T12:03:57.588Z,43.28
2018-09-22T12:04:57.605Z,43.16
2018-09-22T12:05:57.570Z,42.78
2018-09-22T12:06:57.551Z,42.98
2018-09-22T12:07:57.588Z,42.88
2018-09-22T12:08:57.529Z,42.88
2018-09-22T12:09:57.523Z,43.59
2018-09-22T12:10:57.561Z,43.38
2018-09-22T12:11:57.501Z,43.79
2018-09-22T12:12:57.498Z,44.69
2018-09-22T12:13:57.539Z,44.01
2018-09-22T12:14:57.467Z,44.33
2018-09-22T12:15:57.490Z,43.52
2018-09-22T12:16:57.519Z,42.61
2018-09-22T12:17:57.434Z,42.74
2018-09-22T12:18:57.426Z,43.04
2018-09-22T12:19:57.417Z,43.14
2018-09-22T12:20:57.411Z,43.14
2018-09-22T12:21:57.412Z,43.52
2018-09-22T12:22:57.412Z,42.44
2018-09-22T12:23:57.383Z,42.84
2018-09-22T12:24:57.358Z,42.32
2018-09-22T12:25:57.350Z,42.11
2018-09-22T12:26:57.342Z,42.52
2018-09-22T12:27:57.344Z,42.41
2018-09-22T12:28:57.349Z,41.61
2018-09-22T12:29:57.305Z,42.10
2018-09-22T12:30:57.295Z,41.39
2018-09-22T12:31:57.316Z,41.27
2018-09-22T12:32:57.274Z,41.57
2018-09-22T12:33:57.277Z,41.87
2018-09-22T12:34:57.293Z,40.95
2018-09-22T12:35:57.243Z,41.27
2018-09-22T12:36:57.368Z,41.15
2018-09-22T12:37:57.251Z,40.95
2018-09-22T12:38:57.257Z,39.94
2018-09-22T12:39:57.221Z,40.34
2018-09-22T12:40:57.244Z,39.74
2018-09-22T12:41:57.203Z,40.14
2018-09-22T12:42:57.176Z,40.14
2018-09-22T12:43:57.156Z,40.12
2018-09-22T12:44:57.155Z,40.22
2018-09-22T12:45:57.145Z,39.00
2018-09-22T12:46:57.207Z,39.30
2018-09-22T12:47:57.121Z,39.42
2018-09-22T12:48:57.117Z,39.22
2018-09-22T12:49:57.093Z,40.42
2018-09-22T12:50:57.087Z,40.11
2018-09-22T12:51:57.072Z,38.79